createdAt,value
2019-03-30T00:01:41.117Z,97906.69
2019-03-30T00:04:13.103Z,97897.58
2019-03-30T00:06:45.626Z,97901.38
2019-03-30T00:09:17.761Z,97903.23
2019-03-30T00:11:50.157Z,97902.60
2019-03-30T00:14:22.299Z,97908.30
2019-03-30T00:16:54.570Z,97900.48
2019-03-30T00:19:34.894Z,97897.48
2019-03-30T00:22:00.383Z,97896.48
2019-03-30T00:24:32.601Z,97903.20
2019-03-30T00:27:04.715Z,97899.34
2019-03-30T00:29:36.860Z,97899.45
2019-03-30T00:32:09.340Z,97893.77
2019-03-30T00:34:42.470Z,97899.69
2019-03-30T00:37:14.687Z,97893.86
2019-03-30T00:39:47.143Z,97890.84
2019-03-30T00:42:19.851Z,97893.83
2019-03-30T00:44:52.226Z,97892.21
2019-03-30T00:47:24.354Z,97890.21
2019-03-30T00:49:56.425Z,97892.03
2019-03-30T00:52:28.493Z,97893.54
2019-03-30T00:55:00.818Z,97892.52
2019-03-30T00:57:32.882Z,97888.88
2019-03-30T01:00:07.022Z,97890.59
2019-03-30T01:02:39.232Z,97892.52
2019-03-30T01:05:11.458Z,97893.61
2019-03-30T01:07:43.617Z,97895.69
2019-03-30T01:10:16.231Z,97892.52
2019-03-30T01:12:48.292Z,97895.39
2019-03-30T01:15:20.503Z,97892.09
2019-03-30T01:17:52.715Z,97892.04
2019-03-30T01:20:24.846Z,97895.22
2019-03-30T01:22:57.310Z,97886.21
2019-03-30T01:25:30.178Z,97884.61
2019-03-30T01:28:02.264Z,97884.06
2019-03-30T01:30:34.404Z,97884.16
2019-03-30T01:33:06.619Z,97875.08
2019-03-30T01:35:38.684Z,97884.58
2019-03-30T01:38:11.114Z,97883.65
2019-03-30T01:40:43.338Z,97883.75
2019-03-30T01:43:15.419Z,97872.88
2019-03-30T01:45:48.843Z,97880.59
2019-03-30T01:48:20.971Z,97878.66
2019-03-30T01:50:53.135Z,97879.48
2019-03-30T01:53:26.501Z,97874.58
2019-03-30T01:55:58.684Z,97879.06
2019-03-30T01:58:30.737Z,97869.92
2019-03-30T02:01:02.967Z,97871.98
2019-03-30T02:03:35.291Z,97872.56
2019-03-30T02:06:07.828Z,97880.23
2019-03-30T02:08:39.888Z,97880.59
2019-03-30T02:11:14.003Z,97871.83
2019-03-30T02:13:46.906Z,97874.20
2019-03-30T02:16:18.983Z,97877.48
2019-03-30T02:18:51.381Z,97873.50
2019-03-30T02:21:23.530Z,97876.88
2019-03-30T02:23:55.658Z,97871.47
2019-03-30T02:26:27.725Z,97879.80
2019-03-30T02:28:59.922Z,97871.28
2019-03-30T02:31:32.562Z,97866.61
2019-03-30T02:34:04.619Z,97866.07
2019-03-30T02:36:36.668Z,97871.92
2019-03-30T02:39:09.763Z,97870.75
2019-03-30T02:41:41.746Z,97876.34
2019-03-30T02:44:14.488Z,97879.78
2019-03-30T02:46:46.627Z,97870.11
2019-03-30T02:49:18.748Z,97870.02
2019-03-30T02:51:51.203Z,97868.53
2019-03-30T02:54:23.583Z,97872.19
2019-03-30T02:56:56.070Z,97863.78
2019-03-30T02:59:28.049Z,97860.02
2019-03-30T03:02:00.607Z,97858.47
2019-03-30T03:04:32.804Z,97858.53
2019-03-30T03:07:04.914Z,97858.58
2019-03-30T03:09:37.413Z,97852.00
2019-03-30T03:12:10.182Z,97848.45
2019-03-30T03:14:42.322Z,97843.63
2019-03-30T03:17:14.541Z,97853.16
2019-03-30T03:19:46.912Z,97846.58
2019-03-30T03:22:18.996Z,97845.42
2019-03-30T03:24:51.052Z,97846.50
2019-03-30T03:27:23.378Z,97847.18
2019-03-30T03:29:55.727Z,97844.34
2019-03-30T03:32:27.782Z,97841.80
2019-03-30T03:34:59.833Z,97843.42
2019-03-30T03:37:44.502Z,97846.17
2019-03-30T03:40:09.541Z,97844.70
2019-03-30T03:42:42.338Z,97840.59
2019-03-30T03:45:14.556Z,97845.80
2019-03-30T03:47:47.331Z,97846.05
2019-03-30T03:50:45.978Z,97846.50
2019-03-30T03:53:18.908Z,97841.61
2019-03-30T03:55:53.466Z,97852.91
2019-03-30T03:58:28.796Z,97850.67
2019-03-30T04:01:02.987Z,97854.91
2019-03-30T04:03:36.578Z,97853.09
2019-03-30T04:06:09.643Z,97853.52
2019-03-30T04:08:43.947Z,97855.55
2019-03-30T04:11:18.695Z,97852.42
2019-03-30T04:13:54.993Z,97856.86
2019-03-30T04:16:27.170Z,97866.30
2019-03-30T04:18:59.591Z,97861.47
2019-03-30T04:21:43.879Z,97864.35
2019-03-30T04:24:05.297Z,97863.22
2019-03-30T04:26:37.254Z,97873.02
2019-03-30T04:29:10.242Z,97865.53
2019-03-30T04:31:42.667Z,97866.22
2019-03-30T04:34:14.717Z,97867.42
2019-03-30T04:36:46.669Z,97869.42
2019-03-30T04:39:18.731Z,97869.78
2019-03-30T04:41:50.826Z,97868.33
2019-03-30T04:44:22.790Z,97878.38
2019-03-30T04:46:55.103Z,97881.00
2019-03-30T04:49:27.099Z,97881.64
2019-03-30T04:51:59.466Z,97884.50
2019-03-30T04:54:31.492Z,97885.46
2019-03-30T04:57:03.574Z,97890.69
2019-03-30T04:59:35.801Z,97890.52
2019-03-30T05:02:07.766Z,97888.61
2019-03-30T05:04:39.800Z,97889.17
2019-03-30T05:07:12.175Z,97888.22
2019-03-30T05:09:44.211Z,97887.30
2019-03-30T05:12:16.252Z,97885.48
2019-03-30T05:14:48.327Z,97887.69
2019-03-30T05:17:20.827Z,97893.90
2019-03-30T05:19:52.926Z,97893.98
2019-03-30T05:22:24.983Z,97895.47
2019-03-30T05:24:56.933Z,97891.89
2019-03-30T05:27:29.431Z,97887.53
2019-03-30T05:30:01.411Z,97896.59
2019-03-30T05:32:33.341Z,97897.22
2019-03-30T05:35:07.620Z,97891.48
2019-03-30T05:37:40.206Z,97888.84
2019-03-30T05:40:12.603Z,97890.43
2019-03-30T05:42:44.664Z,97896.80
2019-03-30T05:45:16.757Z,97892.75
2019-03-30T05:47:48.718Z,97888.22
2019-03-30T05:50:20.794Z,97888.09
2019-03-30T05:52:52.759Z,97887.03
2019-03-30T05:55:24.790Z,97882.94
2019-03-30T05:57:56.756Z,97885.88
2019-03-30T06:00:28.779Z,97882.09
2019-03-30T06:03:00.751Z,97885.69
2019-03-30T06:05:32.868Z,97876.34
2019-03-30T06:08:05.157Z,97874.73
2019-03-30T06:10:38.794Z,97873.97
2019-03-30T06:13:11.280Z,97875.53
2019-03-30T06:15:44.605Z,97875.65
2019-03-30T06:18:16.946Z,97883.62
2019-03-30T06:20:49.022Z,97882.22
2019-03-30T06:23:21.036Z,97878.07
2019-03-30T06:25:53.140Z,97867.36
2019-03-30T06:28:25.122Z,97871.20
2019-03-30T06:30:57.233Z,97871.31
2019-03-30T06:33:29.301Z,97871.53
2019-03-30T06:36:01.324Z,97870.01
2019-03-30T06:38:33.362Z,97866.17
2019-03-30T06:41:06.573Z,97868.84
2019-03-30T06:43:38.672Z,97861.94
2019-03-30T06:46:10.693Z,97858.53
2019-03-30T06:48:42.771Z,97862.17
2019-03-30T06:51:14.705Z,97870.80
2019-03-30T06:53:47.167Z,97866.03
2019-03-30T06:56:19.225Z,97866.89
2019-03-30T06:58:51.247Z,97860.94
2019-03-30T07:01:23.761Z,97861.20
2019-03-30T07:03:56.389Z,97863.59
2019-03-30T07:06:30.673Z,97861.84
2019-03-30T07:09:05.657Z,97851.95
2019-03-30T07:11:45.272Z,97858.06
2019-03-30T07:14:17.441Z,97855.33
2019-03-30T07:16:52.281Z,97858.82
2019-03-30T07:19:28.842Z,97856.55
2019-03-30T07:22:01.180Z,97854.48
2019-03-30T07:24:33.255Z,97853.05
2019-03-30T07:27:05.289Z,97850.70
2019-03-30T07:29:37.349Z,97851.21
2019-03-30T07:32:09.796Z,97849.63
2019-03-30T07:34:42.015Z,97848.05
2019-03-30T07:37:14.076Z,97845.01
2019-03-30T07:39:46.132Z,97840.30
2019-03-30T07:42:18.182Z,97840.88
2019-03-30T07:44:50.369Z,97839.38
2019-03-30T07:47:22.364Z,97837.73
2019-03-30T07:49:55.185Z,97830.07
2019-03-30T07:52:27.155Z,97834.23
2019-03-30T07:55:00.474Z,97838.10
2019-03-30T07:57:32.527Z,97838.28
2019-03-30T08:00:05.036Z,97836.55
2019-03-30T08:02:37.264Z,97840.02
2019-03-30T08:05:10.056Z,97836.11
2019-03-30T08:07:42.334Z,97832.66
2019-03-30T08:10:15.084Z,97836.95
2019-03-30T08:12:47.488Z,97833.07
2019-03-30T08:15:19.602Z,97828.20
2019-03-30T08:17:51.573Z,97825.59
2019-03-30T08:20:24.759Z,97826.91
2019-03-30T08:22:56.980Z,97830.88
2019-03-30T08:25:29.072Z,97829.12
2019-03-30T08:28:01.129Z,97829.24
2019-03-30T08:30:33.195Z,97832.07
2019-03-30T08:33:05.537Z,97829.36
2019-03-30T08:35:37.705Z,97822.66
2019-03-30T08:38:09.811Z,97823.95
2019-03-30T08:40:42.164Z,97816.79
2019-03-30T08:43:14.135Z,97820.09
2019-03-30T08:45:48.922Z,97830.02
2019-03-30T08:48:19.948Z,97820.94
2019-03-30T08:50:52.425Z,97817.16
2019-03-30T08:53:24.556Z,97815.34
2019-03-30T08:55:56.664Z,97814.53
2019-03-30T08:58:28.906Z,97817.08
2019-03-30T09:01:01.094Z,97816.98
2019-03-30T09:03:34.113Z,97827.41
2019-03-30T09:06:06.486Z,97821.41
2019-03-30T09:08:38.519Z,97814.03
2019-03-30T09:11:10.671Z,97813.20
2019-03-30T09:13:42.658Z,97818.88
2019-03-30T09:16:14.614Z,97817.90
2019-03-30T09:18:46.929Z,97819.07
2019-03-30T09:21:18.984Z,97816.52
2019-03-30T09:23:50.980Z,97800.53
2019-03-30T09:26:23.515Z,97799.48
2019-03-30T09:28:55.805Z,97794.95
2019-03-30T09:31:27.921Z,97790.89
2019-03-30T09:34:00.088Z,97791.11
2019-03-30T09:36:32.272Z,97790.16
2019-03-30T09:39:05.573Z,97787.81
2019-03-30T09:41:37.624Z,97781.58
2019-03-30T09:44:10.853Z,97782.34
2019-03-30T09:46:43.178Z,97786.09
2019-03-30T09:49:15.186Z,97779.38
2019-03-30T09:51:47.577Z,97773.92
2019-03-30T09:54:23.844Z,97776.56
2019-03-30T09:56:54.403Z,97778.99
2019-03-30T09:59:26.366Z,97772.18
2019-03-30T10:01:58.640Z,97769.95
2019-03-30T10:04:30.789Z,97766.11
2019-03-30T10:07:02.858Z,97771.23
2019-03-30T10:09:35.389Z,97759.32
2019-03-30T10:12:09.055Z,97753.16
2019-03-30T10:14:41.577Z,97754.16
2019-03-30T10:17:13.640Z,97748.24
2019-03-30T10:19:53.019Z,97745.75
2019-03-30T10:22:19.558Z,97749.73
2019-03-30T10:24:51.677Z,97739.48
2019-03-30T10:27:23.790Z,97728.73
2019-03-30T10:29:55.918Z,97723.61
2019-03-30T10:32:28.002Z,97720.21
2019-03-30T10:35:00.056Z,97716.84
2019-03-30T10:37:32.118Z,97721.34
2019-03-30T10:40:04.885Z,97719.03
2019-03-30T10:42:37.042Z,97723.84
2019-03-30T10:45:10.363Z,97718.50
2019-03-30T10:47:42.757Z,97712.19
2019-03-30T10:50:15.000Z,97715.86
2019-03-30T10:52:47.152Z,97709.89
2019-03-30T10:55:19.337Z,97706.95
2019-03-30T10:57:51.456Z,97700.46
2019-03-30T11:00:42.704Z,97686.78
2019-03-30T11:03:14.880Z,97692.34
2019-03-30T11:05:47.048Z,97696.19
2019-03-30T11:08:19.682Z,97689.67
2019-03-30T11:10:51.833Z,97693.64
2019-03-30T11:13:23.983Z,97684.34
2019-03-30T11:15:56.149Z,97688.02
2019-03-30T11:18:28.226Z,97682.58
2019-03-30T11:21:00.357Z,97686.12
2019-03-30T11:23:32.425Z,97675.55
2019-03-30T11:26:04.686Z,97673.70
2019-03-30T11:28:36.696Z,97676.77
2019-03-30T11:31:08.860Z,97672.39
2019-03-30T11:33:41.180Z,97667.48
2019-03-30T11:36:13.536Z,97660.52
2019-03-30T11:38:46.116Z,97662.89
2019-03-30T11:41:18.090Z,97663.84
2019-03-30T11:43:50.138Z,97650.40
2019-03-30T11:46:22.385Z,97644.85
2019-03-30T11:48:54.557Z,97645.39
2019-03-30T11:51:26.648Z,97648.23
2019-03-30T11:53:59.090Z,97632.39
2019-03-30T11:56:31.477Z,97636.98
2019-03-30T11:59:03.468Z,97631.05
2019-03-30T12:01:35.634Z,97628.95
2019-03-30T12:04:07.713Z,97625.16
2019-03-30T12:06:40.036Z,97623.95
2019-03-30T12:09:13.021Z,97617.74
2019-03-30T12:11:45.058Z,97609.22
2019-03-30T12:14:17.057Z,97615.42
2019-03-30T12:16:49.255Z,97604.59
2019-03-30T12:19:21.473Z,97605.77
2019-03-30T12:21:53.739Z,97611.30
2019-03-30T12:24:26.042Z,97603.32
2019-03-30T12:26:58.168Z,97588.17
2019-03-30T12:29:30.258Z,97584.52
2019-03-30T12:32:02.551Z,97578.83
2019-03-30T12:34:34.760Z,97574.82
2019-03-30T12:37:06.805Z,97575.45
2019-03-30T12:39:38.965Z,97568.00
2019-03-30T12:42:11.514Z,97565.03
2019-03-30T12:44:43.674Z,97566.89
2019-03-30T12:47:17.050Z,97559.75
2019-03-30T12:49:49.121Z,97551.88
2019-03-30T12:52:21.342Z,97554.78
2019-03-30T12:54:53.573Z,97539.92
2019-03-30T12:57:26.358Z,97543.70
2019-03-30T12:59:59.807Z,97536.25
2019-03-30T13:02:33.273Z,97544.75
2019-03-30T13:07:40.688Z,97539.09
2019-03-30T13:10:12.998Z,97527.36
2019-03-30T13:12:44.976Z,97538.94
2019-03-30T13:15:17.183Z,97532.53
2019-03-30T13:17:49.248Z,97523.30
2019-03-30T13:20:21.325Z,97517.97
2019-03-30T13:22:53.281Z,97508.86
2019-03-30T13:25:25.910Z,97504.86
2019-03-30T13:27:58.277Z,97503.27
2019-03-30T13:30:30.365Z,97496.58
2019-03-30T13:33:02.934Z,97491.95
2019-03-30T13:35:35.945Z,97500.02
2019-03-30T13:38:08.062Z,97498.49
2019-03-30T13:40:40.077Z,97501.05
2019-03-30T13:43:12.613Z,97487.22
2019-03-30T13:45:44.754Z,97488.34
2019-03-30T13:48:16.892Z,97477.39
2019-03-30T13:50:48.893Z,97477.07
2019-03-30T13:53:20.956Z,97476.34
2019-03-30T13:55:53.541Z,97469.71
2019-03-30T13:58:25.716Z,97470.17
2019-03-30T14:00:57.840Z,97468.47
2019-03-30T14:03:29.963Z,97463.81
2019-03-30T14:06:03.058Z,97458.32
2019-03-30T14:08:35.033Z,97458.96
2019-03-30T14:11:07.104Z,97461.08
2019-03-30T14:13:39.205Z,97450.38
2019-03-30T14:16:11.271Z,97456.84
2019-03-30T14:18:43.932Z,97459.45
2019-03-30T14:21:17.570Z,97442.15
2019-03-30T14:23:49.975Z,97436.10
2019-03-30T14:26:31.357Z,97444.41
2019-03-30T14:28:55.844Z,97432.07
2019-03-30T14:31:27.889Z,97430.23
2019-03-30T14:33:59.979Z,97429.33
2019-03-30T14:36:32.057Z,97427.02
2019-03-30T14:39:05.394Z,97421.88
2019-03-30T14:41:39.113Z,97429.28
2019-03-30T14:44:11.601Z,97418.09
2019-03-30T14:46:43.964Z,97406.75
2019-03-30T14:49:16.745Z,97410.94
2019-03-30T14:51:48.795Z,97406.30
2019-03-30T14:54:21.142Z,97403.87
2019-03-30T14:56:53.696Z,97406.96
2019-03-30T14:59:25.965Z,97398.26
2019-03-30T15:01:58.134Z,97397.75
2019-03-30T15:04:30.478Z,97396.13
2019-03-30T15:07:02.485Z,97383.19
2019-03-30T15:09:34.429Z,97376.09
2019-03-30T15:12:06.765Z,97380.39
2019-03-30T15:14:38.819Z,97376.90
2019-03-30T15:17:10.791Z,97377.53
2019-03-30T15:19:43.133Z,97372.84
2019-03-30T15:22:15.197Z,97373.02
2019-03-30T15:24:47.227Z,97372.48
2019-03-30T15:27:19.224Z,97369.91
2019-03-30T15:29:51.274Z,97368.34
2019-03-30T15:32:23.519Z,97365.70
2019-03-30T15:34:58.201Z,97370.20
2019-03-30T15:37:29.392Z,97369.29
2019-03-30T15:40:01.741Z,97363.95
2019-03-30T15:42:33.807Z,97359.67
2019-03-30T15:45:07.025Z,97364.42
2019-03-30T15:47:39.286Z,97354.31
2019-03-30T15:50:12.632Z,97367.12
2019-03-30T15:52:44.929Z,97361.38
2019-03-30T15:55:17.241Z,97357.14
2019-03-30T15:57:49.668Z,97347.41
2019-03-30T16:00:22.159Z,97351.92
2019-03-30T16:02:54.343Z,97346.50
2019-03-30T16:05:26.601Z,97350.91
2019-03-30T16:07:58.665Z,97344.98
2019-03-30T16:10:31.174Z,97344.61
2019-03-30T16:13:03.284Z,97347.09
2019-03-30T16:15:35.485Z,97348.85
2019-03-30T16:18:07.638Z,97335.03
2019-03-30T16:20:40.398Z,97343.77
2019-03-30T16:23:13.022Z,97343.78
2019-03-30T16:25:46.081Z,97338.74
2019-03-30T16:28:18.225Z,97340.19
2019-03-30T16:30:50.714Z,97341.98
2019-03-30T16:33:22.835Z,97340.32
2019-03-30T16:35:54.841Z,97333.21
2019-03-30T16:38:26.991Z,97337.58
2019-03-30T16:40:59.337Z,97342.61
2019-03-30T16:43:31.464Z,97336.47
2019-03-30T16:46:03.664Z,97341.31
2019-03-30T16:48:35.777Z,97336.42
2019-03-30T16:51:07.849Z,97334.41
2019-03-30T16:53:41.331Z,97339.14
2019-03-30T16:56:13.522Z,97338.41
2019-03-30T16:58:45.566Z,97336.68
2019-03-30T17:01:17.989Z,97339.09
2019-03-30T17:03:49.959Z,97334.13
2019-03-30T17:06:21.996Z,97337.89
2019-03-30T17:08:55.456Z,97329.38
2019-03-30T17:11:28.737Z,97325.52
2019-03-30T17:14:00.830Z,97331.33
2019-03-30T17:16:32.845Z,97326.74
2019-03-30T17:19:05.427Z,97331.66
2019-03-30T17:21:37.522Z,97325.84
2019-03-30T17:24:09.687Z,97330.09
2019-03-30T17:26:41.812Z,97331.41
2019-03-30T17:29:14.074Z,97341.20
2019-03-30T17:31:46.152Z,97343.63
2019-03-30T17:34:18.559Z,97352.45
2019-03-30T17:36:50.650Z,97342.28
2019-03-30T17:39:23.015Z,97343.37
2019-03-30T17:41:55.130Z,97345.58
2019-03-30T17:44:27.475Z,97346.89
2019-03-30T17:46:59.857Z,97347.73
2019-03-30T17:49:32.322Z,97351.64
2019-03-30T17:52:04.469Z,97356.77
2019-03-30T17:54:39.682Z,97352.84
2019-03-30T17:57:10.309Z,97360.16
2019-03-30T17:59:42.672Z,97354.94
2019-03-30T18:02:14.737Z,97359.17
2019-03-30T18:04:47.490Z,97358.27
2019-03-30T18:07:19.840Z,97360.79
2019-03-30T18:09:51.877Z,97365.89
2019-03-30T18:12:23.867Z,97370.98
2019-03-30T18:14:55.914Z,97373.97
2019-03-30T18:17:28.896Z,97378.55
2019-03-30T18:20:00.865Z,97379.33
2019-03-30T18:22:34.063Z,97379.26
2019-03-30T18:25:07.311Z,97380.96
2019-03-30T18:27:39.401Z,97388.30
2019-03-30T18:30:12.467Z,97383.66
2019-03-30T18:32:45.184Z,97390.22
2019-03-30T18:35:17.430Z,97387.21
2019-03-30T18:37:50.262Z,97387.63
2019-03-30T18:40:33.132Z,97385.89
2019-03-30T18:43:06.363Z,97382.85
2019-03-30T18:45:38.491Z,97384.59
2019-03-30T18:48:18.345Z,97391.41
2019-03-30T18:50:50.931Z,97390.88
2019-03-30T18:53:23.811Z,97397.30
2019-03-30T18:55:55.900Z,97395.05
2019-03-30T18:58:41.005Z,97398.80
2019-03-30T19:01:02.492Z,97400.55
2019-03-30T19:03:34.531Z,97395.02
2019-03-30T19:06:06.804Z,97404.55
2019-03-30T19:08:38.883Z,97396.30
2019-03-30T19:11:11.028Z,97403.72
2019-03-30T19:13:43.508Z,97401.17
2019-03-30T19:16:16.692Z,97400.26
2019-03-30T19:18:48.917Z,97393.72
2019-03-30T19:21:21.175Z,97392.97
2019-03-30T19:23:53.259Z,97397.55
2019-03-30T19:26:25.330Z,97387.92
2019-03-30T19:28:57.348Z,97398.38
2019-03-30T19:31:29.423Z,97385.06
2019-03-30T19:34:01.394Z,97394.93
2019-03-30T19:36:33.453Z,97392.53
2019-03-30T19:39:08.877Z,97382.13
2019-03-30T19:41:40.909Z,97391.76
2019-03-30T19:44:13.063Z,97391.24
2019-03-30T19:46:45.128Z,97387.88
2019-03-30T19:49:17.614Z,97390.05
2019-03-30T19:51:49.895Z,97385.53
2019-03-30T19:54:22.233Z,97385.19
2019-03-30T19:56:54.385Z,97392.72
2019-03-30T19:59:26.366Z,97393.64
2019-03-30T20:01:58.483Z,97394.47
2019-03-30T20:04:31.022Z,97396.09
2019-03-30T20:07:03.419Z,97392.19
2019-03-30T20:09:35.645Z,97392.05
2019-03-30T20:12:07.804Z,97398.44
2019-03-30T20:14:40.103Z,97384.68
2019-03-30T20:17:12.380Z,97396.63
2019-03-30T20:19:44.320Z,97393.23
2019-03-30T20:22:16.293Z,97400.09
2019-03-30T20:24:48.327Z,97401.37
2019-03-30T20:27:20.281Z,97403.47
2019-03-30T20:29:52.313Z,97397.68
2019-03-30T20:32:24.936Z,97392.35
2019-03-30T20:34:56.904Z,97395.66
2019-03-30T20:37:28.861Z,97399.28
2019-03-30T20:40:00.808Z,97395.95
2019-03-30T20:42:32.985Z,97401.85
2019-03-30T20:45:06.685Z,97399.22
2019-03-30T20:47:39.745Z,97397.45
2019-03-30T20:50:12.570Z,97396.55
2019-03-30T20:52:44.628Z,97398.43
2019-03-30T20:55:16.629Z,97392.80
2019-03-30T20:57:48.841Z,97389.98
2019-03-30T21:00:21.649Z,97395.36
2019-03-30T21:02:53.617Z,97397.68
2019-03-30T21:05:27.402Z,97397.16
2019-03-30T21:07:59.428Z,97391.55
2019-03-30T21:10:31.739Z,97392.39
2019-03-30T21:13:03.778Z,97400.64
2019-03-30T21:15:35.795Z,97393.36
2019-03-30T21:18:07.905Z,97404.67
2019-03-30T21:20:39.934Z,97392.52
2019-03-30T21:23:12.389Z,97393.59
2019-03-30T21:25:44.597Z,97393.38
2019-03-30T21:28:16.903Z,97388.54
2019-03-30T21:30:48.905Z,97399.17
2019-03-30T21:33:20.966Z,97405.52
2019-03-30T21:35:53.038Z,97408.05
2019-03-30T21:38:25.281Z,97407.29
2019-03-30T21:40:58.500Z,97401.89
2019-03-30T21:43:30.855Z,97406.33
2019-03-30T21:46:02.798Z,97411.39
2019-03-30T21:48:34.861Z,97406.15
2019-03-30T21:51:07.243Z,97407.34
2019-03-30T21:53:39.278Z,97404.61
2019-03-30T21:56:11.236Z,97404.98
2019-03-30T21:58:43.460Z,97405.33
2019-03-30T22:01:15.587Z,97409.41
2019-03-30T22:03:47.798Z,97407.87
2019-03-30T22:06:20.565Z,97396.91
2019-03-30T22:08:54.003Z,97402.68
2019-03-30T22:11:25.931Z,97401.13
2019-03-30T22:13:58.175Z,97403.05
2019-03-30T22:16:30.126Z,97403.13
2019-03-30T22:19:02.269Z,97407.13
2019-03-30T22:21:34.455Z,97399.71
2019-03-30T22:24:06.656Z,97404.02
2019-03-30T22:26:38.998Z,97405.73
2019-03-30T22:29:11.138Z,97407.48
2019-03-30T22:31:43.201Z,97407.30
2019-03-30T22:34:15.221Z,97404.78
2019-03-30T22:36:47.192Z,97404.84
2019-03-30T22:39:19.134Z,97405.06
2019-03-30T22:41:51.080Z,97407.75
2019-03-30T22:44:23.099Z,97405.50
2019-03-30T22:46:55.124Z,97397.80
2019-03-30T22:49:27.179Z,97405.19
2019-03-30T22:51:59.237Z,97402.83
2019-03-30T22:54:31.301Z,97407.63
2019-03-30T22:57:03.276Z,97407.90
2019-03-30T22:59:35.205Z,97407.20
2019-03-30T23:02:07.647Z,97399.77
2019-03-30T23:04:39.953Z,97399.86
2019-03-30T23:07:11.902Z,97399.63
2019-03-30T23:09:44.720Z,97402.09
2019-03-30T23:12:17.030Z,97399.16
2019-03-30T23:14:50.696Z,97397.05
2019-03-30T23:17:22.752Z,97400.88
2019-03-30T23:19:55.784Z,97401.60
2019-03-30T23:22:27.718Z,97397.95
2019-03-30T23:24:59.807Z,97404.61
2019-03-30T23:27:31.760Z,97395.08
2019-03-30T23:30:05.475Z,97397.47
2019-03-30T23:32:37.499Z,97401.36
2019-03-30T23:35:10.015Z,97405.03
2019-03-30T23:37:42.000Z,97409.75
2019-03-30T23:40:14.491Z,97408.59
2019-03-30T23:42:46.632Z,97408.27
2019-03-30T23:45:18.750Z,97401.54
2019-03-30T23:47:50.787Z,97410.05
2019-03-30T23:50:22.819Z,97407.16
2019-03-30T23:52:54.967Z,97399.97
2019-03-30T23:55:27.069Z,97402.33
2019-03-30T23:57:59.018Z,97399.11
